sensor_id;sensor_type;location;lat;lon;timestamp;P1;durP1;ratioP1;P2;durP2;ratioP2
59145;SDS011;44928;53.074;6.646;2023-06-22T00:01:03;18.58;;;13.30;;
59145;SDS011;44928;53.074;6.646;2023-06-22T00:03:29;20.27;;;14.70;;
59145;SDS011;44928;53.074;6.646;2023-06-22T00:05:54;17.90;;;14.90;;
59145;SDS011;44928;53.074;6.646;2023-06-22T00:08:21;17.40;;;13.75;;
59145;SDS011;44928;53.074;6.646;2023-06-22T00:10:47;18.77;;;14.68;;
59145;SDS011;44928;53.074;6.646;2023-06-22T00:13:13;18.13;;;14.13;;
59145;SDS011;44928;53.074;6.646;2023-06-22T00:15:40;17.05;;;13.57;;
59145;SDS011;44928;53.074;6.646;2023-06-22T00:18:06;19.90;;;15.35;;
59145;SDS011;44928;53.074;6.646;2023-06-22T00:20:33;18.90;;;15.38;;
59145;SDS011;44928;53.074;6.646;2023-06-22T00:23:02;19.98;;;17.83;;
59145;SDS011;44928;53.074;6.646;2023-06-22T00:25:35;18.48;;;13.50;;
59145;SDS011;44928;53.074;6.646;2023-06-22T00:28:02;20.20;;;15.73;;
59145;SDS011;44928;53.074;6.646;2023-06-22T00:30:30;21.42;;;16.83;;
59145;SDS011;44928;53.074;6.646;2023-06-22T00:32:56;18.27;;;14.80;;
59145;SDS011;44928;53.074;6.646;2023-06-22T00:35:22;19.52;;;16.48;;
59145;SDS011;44928;53.074;6.646;2023-06-22T00:37:48;20.08;;;17.33;;
59145;SDS011;44928;53.074;6.646;2023-06-22T00:40:13;20.40;;;18.08;;
59145;SDS011;44928;53.074;6.646;2023-06-22T00:42:40;21.45;;;15.85;;
59145;SDS011;44928;53.074;6.646;2023-06-22T00:45:06;20.90;;;17.05;;
59145;SDS011;44928;53.074;6.646;2023-06-22T00:47:35;22.10;;;15.73;;
59145;SDS011;44928;53.074;6.646;2023-06-22T00:50:02;19.27;;;15.80;;
59145;SDS011;44928;53.074;6.646;2023-06-22T00:52:32;22.92;;;18.88;;
59145;SDS011;44928;53.074;6.646;2023-06-22T00:55:00;22.98;;;18.35;;
59145;SDS011;44928;53.074;6.646;2023-06-22T00:57:27;20.83;;;16.05;;
59145;SDS011;44928;53.074;6.646;2023-06-22T00:59:53;18.15;;;15.50;;
59145;SDS011;44928;53.074;6.646;2023-06-22T01:02:19;18.30;;;13.30;;
59145;SDS011;44928;53.074;6.646;2023-06-22T01:04:45;17.35;;;14.32;;
59145;SDS011;44928;53.074;6.646;2023-06-22T01:12:58;17.38;;;13.27;;
59145;SDS011;44928;53.074;6.646;2023-06-22T01:15:37;16.88;;;12.73;;
59145;SDS011;44928;53.074;6.646;2023-06-22T01:18:06;17.73;;;14.00;;
59145;SDS011;44928;53.074;6.646;2023-06-22T01:20:34;19.17;;;14.55;;
59145;SDS011;44928;53.074;6.646;2023-06-22T01:23:14;18.50;;;13.27;;
59145;SDS011;44928;53.074;6.646;2023-06-22T01:26:08;15.88;;;10.65;;
59145;SDS011;44928;53.074;6.646;2023-06-22T01:28:50;12.32;;;8.95;;
59145;SDS011;44928;53.074;6.646;2023-06-22T01:31:25;12.23;;;8.07;;
59145;SDS011;44928;53.074;6.646;2023-06-22T01:33:55;11.27;;;8.23;;
59145;SDS011;44928;53.074;6.646;2023-06-22T01:36:24;14.30;;;11.25;;
59145;SDS011;44928;53.074;6.646;2023-06-22T01:38:51;13.52;;;11.00;;
59145;SDS011;44928;53.074;6.646;2023-06-22T01:41:19;12.43;;;9.65;;
59145;SDS011;44928;53.074;6.646;2023-06-22T01:43:46;11.43;;;8.85;;
59145;SDS011;44928;53.074;6.646;2023-06-22T01:46:13;18.75;;;12.27;;
59145;SDS011;44928;53.074;6.646;2023-06-22T01:48:39;17.58;;;14.73;;
59145;SDS011;44928;53.074;6.646;2023-06-22T01:51:06;13.02;;;11.70;;
59145;SDS011;44928;53.074;6.646;2023-06-22T01:53:32;12.40;;;9.75;;
59145;SDS011;44928;53.074;6.646;2023-06-22T01:55:58;12.32;;;9.57;;
59145;SDS011;44928;53.074;6.646;2023-06-22T01:58:27;12.85;;;11.45;;
59145;SDS011;44928;53.074;6.646;2023-06-22T02:00:56;14.88;;;11.95;;
59145;SDS011;44928;53.074;6.646;2023-06-22T02:03:30;11.65;;;10.25;;
59145;SDS011;44928;53.074;6.646;2023-06-22T02:06:04;12.13;;;10.82;;
59145;SDS011;44928;53.074;6.646;2023-06-22T02:08:44;10.80;;;9.65;;
59145;SDS011;44928;53.074;6.646;2023-06-22T02:11:14;12.07;;;10.75;;
59145;SDS011;44928;53.074;6.646;2023-06-22T02:13:41;12.20;;;10.40;;
59145;SDS011;44928;53.074;6.646;2023-06-22T02:16:11;13.73;;;12.23;;
59145;SDS011;44928;53.074;6.646;2023-06-22T02:18:38;13.33;;;11.97;;
59145;SDS011;44928;53.074;6.646;2023-06-22T02:21:05;13.80;;;12.38;;
59145;SDS011;44928;53.074;6.646;2023-06-22T02:23:32;14.80;;;13.23;;
59145;SDS011;44928;53.074;6.646;2023-06-22T02:26:01;14.30;;;12.80;;
59145;SDS011;44928;53.074;6.646;2023-06-22T02:28:27;12.50;;;11.07;;
59145;SDS011;44928;53.074;6.646;2023-06-22T02:30:53;13.55;;;12.00;;
59145;SDS011;44928;53.074;6.646;2023-06-22T02:33:19;13.68;;;10.93;;
59145;SDS011;44928;53.074;6.646;2023-06-22T02:35:45;12.98;;;11.50;;
59145;SDS011;44928;53.074;6.646;2023-06-22T02:38:14;15.18;;;12.82;;
59145;SDS011;44928;53.074;6.646;2023-06-22T02:40:39;15.10;;;13.23;;
59145;SDS011;44928;53.074;6.646;2023-06-22T02:43:05;14.32;;;12.40;;
59145;SDS011;44928;53.074;6.646;2023-06-22T02:45:31;12.43;;;10.45;;
59145;SDS011;44928;53.074;6.646;2023-06-22T02:47:57;14.63;;;12.43;;
59145;SDS011;44928;53.074;6.646;2023-06-22T02:50:23;13.80;;;11.77;;
59145;SDS011;44928;53.074;6.646;2023-06-22T02:52:49;15.60;;;13.90;;
59145;SDS011;44928;53.074;6.646;2023-06-22T02:55:15;14.98;;;12.18;;
59145;SDS011;44928;53.074;6.646;2023-06-22T02:57:40;13.32;;;11.43;;
59145;SDS011;44928;53.074;6.646;2023-06-22T03:00:09;14.15;;;11.68;;
59145;SDS011;44928;53.074;6.646;2023-06-22T03:02:44;18.25;;;14.60;;
59145;SDS011;44928;53.074;6.646;2023-06-22T03:05:11;19.33;;;15.82;;
59145;SDS011;44928;53.074;6.646;2023-06-22T03:07:43;22.35;;;17.75;;
59145;SDS011;44928;53.074;6.646;2023-06-22T03:10:10;20.60;;;17.77;;
59145;SDS011;44928;53.074;6.646;2023-06-22T03:12:37;19.00;;;17.00;;
59145;SDS011;44928;53.074;6.646;2023-06-22T03:15:07;18.15;;;15.95;;
59145;SDS011;44928;53.074;6.646;2023-06-22T03:17:34;18.27;;;16.13;;
59145;SDS011;44928;53.074;6.646;2023-06-22T03:20:01;20.52;;;16.98;;
59145;SDS011;44928;53.074;6.646;2023-06-22T03:22:34;18.63;;;15.98;;
59145;SDS011;44928;53.074;6.646;2023-06-22T03:25:00;17.65;;;14.00;;
59145;SDS011;44928;53.074;6.646;2023-06-22T03:27:26;20.05;;;15.40;;
59145;SDS011;44928;53.074;6.646;2023-06-22T03:29:52;19.58;;;15.73;;
59145;SDS011;44928;53.074;6.646;2023-06-22T03:32:18;16.35;;;14.45;;
59145;SDS011;44928;53.074;6.646;2023-06-22T03:34:44;17.30;;;14.80;;
59145;SDS011;44928;53.074;6.646;2023-06-22T03:37:13;17.50;;;15.70;;
59145;SDS011;44928;53.074;6.646;2023-06-22T03:39:40;17.02;;;14.75;;
59145;SDS011;44928;53.074;6.646;2023-06-22T03:42:07;19.48;;;17.48;;
59145;SDS011;44928;53.074;6.646;2023-06-22T03:44:33;17.50;;;15.68;;
59145;SDS011;44928;53.074;6.646;2023-06-22T03:47:01;18.80;;;17.00;;
59145;SDS011;44928;53.074;6.646;2023-06-22T03:51:59;17.15;;;15.45;;
59145;SDS011;44928;53.074;6.646;2023-06-22T03:54:26;18.15;;;16.17;;
59145;SDS011;44928;53.074;6.646;2023-06-22T03:56:53;18.30;;;16.40;;
59145;SDS011;44928;53.074;6.646;2023-06-22T03:59:18;19.30;;;17.30;;
59145;SDS011;44928;53.074;6.646;2023-06-22T04:01:44;19.45;;;17.55;;
59145;SDS011;44928;53.074;6.646;2023-06-22T04:04:10;18.52;;;16.65;;
59145;SDS011;44928;53.074;6.646;2023-06-22T04:06:36;17.20;;;15.48;;
59145;SDS011;44928;53.074;6.646;2023-06-22T04:09:02;18.20;;;16.40;;
59145;SDS011;44928;53.074;6.646;2023-06-22T04:11:28;18.48;;;16.58;;
59145;SDS011;44928;53.074;6.646;2023-06-22T04:13:53;19.63;;;17.60;;
59145;SDS011;44928;53.074;6.646;2023-06-22T04:16:19;19.30;;;17.40;;
59145;SDS011;44928;53.074;6.646;2023-06-22T04:18:45;21.63;;;19.42;;
59145;SDS011;44928;53.074;6.646;2023-06-22T04:21:10;20.40;;;18.08;;
59145;SDS011;44928;53.074;6.646;2023-06-22T04:23:38;19.58;;;17.58;;
59145;SDS011;44928;53.074;6.646;2023-06-22T04:26:04;19.85;;;17.85;;
59145;SDS011;44928;53.074;6.646;2023-06-22T04:28:30;19.92;;;17.67;;
59145;SDS011;44928;53.074;6.646;2023-06-22T04:31:03;20.83;;;18.73;;
59145;SDS011;44928;53.074;6.646;2023-06-22T04:33:30;19.48;;;17.58;;
59145;SDS011;44928;53.074;6.646;2023-06-22T04:35:56;20.45;;;18.33;;
59145;SDS011;44928;53.074;6.646;2023-06-22T04:38:23;18.92;;;17.08;;
59145;SDS011;44928;53.074;6.646;2023-06-22T04:40:49;17.17;;;15.57;;
59145;SDS011;44928;53.074;6.646;2023-06-22T04:43:16;19.35;;;17.45;;
59145;SDS011;44928;53.074;6.646;2023-06-22T04:45:41;18.25;;;16.45;;
59145;SDS011;44928;53.074;6.646;2023-06-22T04:48:07;19.25;;;17.25;;
59145;SDS011;44928;53.074;6.646;2023-06-22T04:50:41;19.08;;;17.08;;
59145;SDS011;44928;53.074;6.646;2023-06-22T04:53:07;19.55;;;17.52;;
59145;SDS011;44928;53.074;6.646;2023-06-22T04:58:06;20.42;;;18.38;;
59145;SDS011;44928;53.074;6.646;2023-06-22T05:00:32;20.70;;;18.38;;
59145;SDS011;44928;53.074;6.646;2023-06-22T05:03:01;20.50;;;18.52;;
59145;SDS011;44928;53.074;6.646;2023-06-22T05:05:28;19.65;;;17.65;;
59145;SDS011;44928;53.074;6.646;2023-06-22T05:07:56;22.33;;;20.13;;
59145;SDS011;44928;53.074;6.646;2023-06-22T05:10:25;22.08;;;19.98;;
59145;SDS011;44928;53.074;6.646;2023-06-22T05:12:51;21.58;;;19.48;;
59145;SDS011;44928;53.074;6.646;2023-06-22T05:15:17;24.77;;;22.27;;
59145;SDS011;44928;53.074;6.646;2023-06-22T05:17:47;30.57;;;24.90;;
59145;SDS011;44928;53.074;6.646;2023-06-22T05:20:13;25.92;;;23.33;;
59145;SDS011;44928;53.074;6.646;2023-06-22T05:22:39;26.65;;;23.77;;
59145;SDS011;44928;53.074;6.646;2023-06-22T05:25:07;26.13;;;23.40;;
59145;SDS011;44928;53.074;6.646;2023-06-22T05:27:34;26.65;;;23.73;;
59145;SDS011;44928;53.074;6.646;2023-06-22T05:30:04;27.48;;;24.55;;
59145;SDS011;44928;53.074;6.646;2023-06-22T05:32:32;26.67;;;23.55;;
59145;SDS011;44928;53.074;6.646;2023-06-22T05:34:58;25.75;;;23.02;;
59145;SDS011;44928;53.074;6.646;2023-06-22T05:37:24;30.45;;;25.63;;
59145;SDS011;44928;53.074;6.646;2023-06-22T05:39:51;27.65;;;23.38;;
59145;SDS011;44928;53.074;6.646;2023-06-22T05:42:17;29.92;;;26.30;;
59145;SDS011;44928;53.074;6.646;2023-06-22T05:44:42;37.47;;;28.48;;
59145;SDS011;44928;53.074;6.646;2023-06-22T05:47:08;37.05;;;31.27;;
59145;SDS011;44928;53.074;6.646;2023-06-22T05:49:34;41.80;;;32.20;;
59145;SDS011;44928;53.074;6.646;2023-06-22T05:52:00;41.50;;;32.17;;
59145;SDS011;44928;53.074;6.646;2023-06-22T05:54:27;43.00;;;32.55;;
59145;SDS011;44928;53.074;6.646;2023-06-22T05:56:53;39.63;;;32.30;;
59145;SDS011;44928;53.074;6.646;2023-06-22T05:59:19;40.55;;;31.65;;
59145;SDS011;44928;53.074;6.646;2023-06-22T06:01:45;43.13;;;31.50;;
59145;SDS011;44928;53.074;6.646;2023-06-22T06:04:15;44.25;;;35.13;;
59145;SDS011;44928;53.074;6.646;2023-06-22T06:06:44;36.88;;;30.27;;
59145;SDS011;44928;53.074;6.646;2023-06-22T06:09:12;36.33;;;30.35;;
59145;SDS011;44928;53.074;6.646;2023-06-22T06:11:41;36.35;;;29.27;;
59145;SDS011;44928;53.074;6.646;2023-06-22T06:14:07;30.25;;;26.23;;
59145;SDS011;44928;53.074;6.646;2023-06-22T06:16:33;29.05;;;24.20;;
59145;SDS011;44928;53.074;6.646;2023-06-22T06:18:59;27.58;;;24.17;;
59145;SDS011;44928;53.074;6.646;2023-06-22T06:21:24;29.02;;;23.67;;
59145;SDS011;44928;53.074;6.646;2023-06-22T06:23:50;28.10;;;23.48;;
59145;SDS011;44928;53.074;6.646;2023-06-22T06:26:16;27.23;;;22.85;;
59145;SDS011;44928;53.074;6.646;2023-06-22T06:28:44;24.60;;;22.00;;
59145;SDS011;44928;53.074;6.646;2023-06-22T06:31:11;27.10;;;22.25;;
59145;SDS011;44928;53.074;6.646;2023-06-22T06:33:37;24.90;;;21.45;;
59145;SDS011;44928;53.074;6.646;2023-06-22T06:36:03;23.60;;;20.05;;
59145;SDS011;44928;53.074;6.646;2023-06-22T06:38:29;22.10;;;18.67;;
59145;SDS011;44928;53.074;6.646;2023-06-22T06:40:55;23.80;;;20.42;;
59145;SDS011;44928;53.074;6.646;2023-06-22T06:43:21;21.40;;;18.50;;
59145;SDS011;44928;53.074;6.646;2023-06-22T06:45:48;23.75;;;19.00;;
59145;SDS011;44928;53.074;6.646;2023-06-22T06:48:14;23.17;;;18.58;;
59145;SDS011;44928;53.074;6.646;2023-06-22T06:50:40;22.38;;;18.63;;
59145;SDS011;44928;53.074;6.646;2023-06-22T06:53:06;20.92;;;18.50;;
59145;SDS011;44928;53.074;6.646;2023-06-22T06:55:31;23.25;;;18.10;;
59145;SDS011;44928;53.074;6.646;2023-06-22T06:58:01;22.15;;;16.15;;
59145;SDS011;44928;53.074;6.646;2023-06-22T07:00:28;21.13;;;15.77;;
59145;SDS011;44928;53.074;6.646;2023-06-22T07:02:53;20.83;;;14.80;;
59145;SDS011;44928;53.074;6.646;2023-06-22T07:05:19;18.27;;;13.73;;
59145;SDS011;44928;53.074;6.646;2023-06-22T07:07:45;16.55;;;12.50;;
59145;SDS011;44928;53.074;6.646;2023-06-22T07:10:11;16.92;;;11.80;;
59145;SDS011;44928;53.074;6.646;2023-06-22T07:12:37;15.98;;;10.70;;
59145;SDS011;44928;53.074;6.646;2023-06-22T07:15:03;15.13;;;10.48;;
59145;SDS011;44928;53.074;6.646;2023-06-22T07:17:30;13.82;;;9.23;;
59145;SDS011;44928;53.074;6.646;2023-06-22T07:19:56;14.52;;;9.73;;
59145;SDS011;44928;53.074;6.646;2023-06-22T07:22:22;15.13;;;10.23;;
59145;SDS011;44928;53.074;6.646;2023-06-22T07:24:48;14.65;;;9.63;;
59145;SDS011;44928;53.074;6.646;2023-06-22T07:27:14;15.65;;;10.52;;
59145;SDS011;44928;53.074;6.646;2023-06-22T07:29:43;14.32;;;10.07;;
59145;SDS011;44928;53.074;6.646;2023-06-22T07:32:09;13.85;;;9.18;;
59145;SDS011;44928;53.074;6.646;2023-06-22T07:34:35;15.38;;;9.52;;
59145;SDS011;44928;53.074;6.646;2023-06-22T07:37:01;13.85;;;8.90;;
59145;SDS011;44928;53.074;6.646;2023-06-22T07:39:27;16.52;;;8.15;;
59145;SDS011;44928;53.074;6.646;2023-06-22T07:41:53;14.20;;;7.18;;
59145;SDS011;44928;53.074;6.646;2023-06-22T07:44:19;10.63;;;6.63;;
59145;SDS011;44928;53.074;6.646;2023-06-22T07:46:45;12.68;;;6.68;;
59145;SDS011;44928;53.074;6.646;2023-06-22T07:49:11;11.10;;;6.15;;
59145;SDS011;44928;53.074;6.646;2023-06-22T07:51:36;11.38;;;7.32;;
59145;SDS011;44928;53.074;6.646;2023-06-22T07:54:02;10.93;;;6.70;;
59145;SDS011;44928;53.074;6.646;2023-06-22T07:56:28;11.07;;;7.07;;
59145;SDS011;44928;53.074;6.646;2023-06-22T07:58:54;10.77;;;5.28;;
59145;SDS011;44928;53.074;6.646;2023-06-22T08:01:23;10.38;;;5.30;;
59145;SDS011;44928;53.074;6.646;2023-06-22T08:03:48;7.97;;;4.30;;
59145;SDS011;44928;53.074;6.646;2023-06-22T08:06:15;9.00;;;3.90;;
59145;SDS011;44928;53.074;6.646;2023-06-22T08:08:41;9.45;;;3.67;;
59145;SDS011;44928;53.074;6.646;2023-06-22T08:11:07;6.97;;;3.13;;
59145;SDS011;44928;53.074;6.646;2023-06-22T08:13:33;8.00;;;3.85;;
59145;SDS011;44928;53.074;6.646;2023-06-22T08:15:59;8.55;;;3.80;;
59145;SDS011;44928;53.074;6.646;2023-06-22T08:18:25;8.55;;;4.00;;
59145;SDS011;44928;53.074;6.646;2023-06-22T08:20:51;8.77;;;4.18;;
59145;SDS011;44928;53.074;6.646;2023-06-22T08:23:17;9.40;;;4.85;;
59145;SDS011;44928;53.074;6.646;2023-06-22T08:25:43;12.00;;;4.65;;
59145;SDS011;44928;53.074;6.646;2023-06-22T08:28:09;9.27;;;4.72;;
59145;SDS011;44928;53.074;6.646;2023-06-22T08:30:35;9.98;;;4.63;;
59145;SDS011;44928;53.074;6.646;2023-06-22T08:33:01;9.40;;;4.45;;
59145;SDS011;44928;53.074;6.646;2023-06-22T08:35:26;10.20;;;5.22;;
59145;SDS011;44928;53.074;6.646;2023-06-22T08:37:52;9.35;;;4.75;;
59145;SDS011;44928;53.074;6.646;2023-06-22T08:40:20;9.18;;;5.00;;
59145;SDS011;44928;53.074;6.646;2023-06-22T08:42:47;10.85;;;5.43;;
59145;SDS011;44928;53.074;6.646;2023-06-22T08:45:13;13.38;;;5.00;;
59145;SDS011;44928;53.074;6.646;2023-06-22T08:47:39;11.77;;;5.60;;
59145;SDS011;44928;53.074;6.646;2023-06-22T08:50:09;12.93;;;5.30;;
59145;SDS011;44928;53.074;6.646;2023-06-22T08:52:36;9.88;;;5.80;;
59145;SDS011;44928;53.074;6.646;2023-06-22T08:55:03;9.63;;;5.40;;
59145;SDS011;44928;53.074;6.646;2023-06-22T08:57:29;9.38;;;5.30;;
59145;SDS011;44928;53.074;6.646;2023-06-22T08:59:55;9.38;;;5.35;;
59145;SDS011;44928;53.074;6.646;2023-06-22T09:02:26;10.65;;;5.63;;
59145;SDS011;44928;53.074;6.646;2023-06-22T09:04:56;10.35;;;5.88;;
59145;SDS011;44928;53.074;6.646;2023-06-22T09:07:22;9.85;;;5.32;;
59145;SDS011;44928;53.074;6.646;2023-06-22T09:09:50;10.75;;;5.35;;
59145;SDS011;44928;53.074;6.646;2023-06-22T09:12:16;10.52;;;4.88;;
59145;SDS011;44928;53.074;6.646;2023-06-22T09:14:42;12.05;;;5.00;;
59145;SDS011;44928;53.074;6.646;2023-06-22T09:17:08;10.43;;;5.35;;
59145;SDS011;44928;53.074;6.646;2023-06-22T09:19:34;9.77;;;4.88;;
59145;SDS011;44928;53.074;6.646;2023-06-22T09:21:59;9.77;;;4.95;;
59145;SDS011;44928;53.074;6.646;2023-06-22T09:24:25;13.25;;;5.00;;
59145;SDS011;44928;53.074;6.646;2023-06-22T09:26:51;10.25;;;5.63;;
59145;SDS011;44928;53.074;6.646;2023-06-22T09:29:17;9.68;;;5.28;;
59145;SDS011;44928;53.074;6.646;2023-06-22T09:31:42;14.60;;;5.70;;
59145;SDS011;44928;53.074;6.646;2023-06-22T09:34:09;11.05;;;5.63;;
59145;SDS011;44928;53.074;6.646;2023-06-22T09:36:35;13.20;;;6.18;;
59145;SDS011;44928;53.074;6.646;2023-06-22T09:39:01;10.65;;;5.10;;
59145;SDS011;44928;53.074;6.646;2023-06-22T09:41:31;10.45;;;5.40;;
59145;SDS011;44928;53.074;6.646;2023-06-22T09:43:57;11.50;;;6.30;;
59145;SDS011;44928;53.074;6.646;2023-06-22T09:46:22;12.32;;;5.20;;
59145;SDS011;44928;53.074;6.646;2023-06-22T09:48:51;9.52;;;4.90;;
59145;SDS011;44928;53.074;6.646;2023-06-22T09:51:17;9.65;;;4.30;;
59145;SDS011;44928;53.074;6.646;2023-06-22T09:53:45;12.07;;;6.15;;
59145;SDS011;44928;53.074;6.646;2023-06-22T09:56:10;9.63;;;4.65;;
59145;SDS011;44928;53.074;6.646;2023-06-22T09:58:40;10.27;;;4.82;;
59145;SDS011;44928;53.074;6.646;2023-06-22T10:01:07;10.93;;;5.90;;
59145;SDS011;44928;53.074;6.646;2023-06-22T10:03:32;9.15;;;5.03;;
59145;SDS011;44928;53.074;6.646;2023-06-22T10:05:58;8.85;;;5.10;;
59145;SDS011;44928;53.074;6.646;2023-06-22T10:08:24;9.38;;;4.78;;
59145;SDS011;44928;53.074;6.646;2023-06-22T10:10:50;10.20;;;4.38;;
59145;SDS011;44928;53.074;6.646;2023-06-22T10:13:15;9.45;;;4.25;;
59145;SDS011;44928;53.074;6.646;2023-06-22T10:15:41;10.02;;;5.20;;
59145;SDS011;44928;53.074;6.646;2023-06-22T10:18:07;10.82;;;4.00;;
59145;SDS011;44928;53.074;6.646;2023-06-22T10:20:33;8.98;;;4.32;;
59145;SDS011;44928;53.074;6.646;2023-06-22T10:22:59;10.57;;;4.55;;
59145;SDS011;44928;53.074;6.646;2023-06-22T10:25:26;9.57;;;4.47;;
59145;SDS011;44928;53.074;6.646;2023-06-22T10:27:53;9.50;;;4.70;;
59145;SDS011;44928;53.074;6.646;2023-06-22T10:30:18;11.45;;;4.35;;
59145;SDS011;44928;53.074;6.646;2023-06-22T10:32:44;8.05;;;3.95;;
59145;SDS011;44928;53.074;6.646;2023-06-22T10:35:10;8.73;;;4.15;;
59145;SDS011;44928;53.074;6.646;2023-06-22T10:37:38;8.23;;;3.50;;
59145;SDS011;44928;53.074;6.646;2023-06-22T10:40:04;9.80;;;4.25;;
59145;SDS011;44928;53.074;6.646;2023-06-22T10:42:30;8.30;;;3.80;;
59145;SDS011;44928;53.074;6.646;2023-06-22T10:44:56;10.48;;;4.20;;
59145;SDS011;44928;53.074;6.646;2023-06-22T10:47:22;8.68;;;4.10;;
59145;SDS011;44928;53.074;6.646;2023-06-22T10:49:48;8.60;;;3.75;;
59145;SDS011;44928;53.074;6.646;2023-06-22T10:52:13;9.65;;;3.40;;
59145;SDS011;44928;53.074;6.646;2023-06-22T10:54:41;13.13;;;4.00;;
59145;SDS011;44928;53.074;6.646;2023-06-22T10:57:07;8.38;;;3.97;;
59145;SDS011;44928;53.074;6.646;2023-06-22T10:59:32;8.73;;;3.70;;
59145;SDS011;44928;53.074;6.646;2023-06-22T11:01:58;10.55;;;4.25;;
59145;SDS011;44928;53.074;6.646;2023-06-22T11:04:24;9.65;;;4.05;;
59145;SDS011;44928;53.074;6.646;2023-06-22T11:06:50;8.68;;;3.70;;
59145;SDS011;44928;53.074;6.646;2023-06-22T11:09:16;8.77;;;4.40;;
59145;SDS011;44928;53.074;6.646;2023-06-22T11:11:45;7.00;;;3.25;;
59145;SDS011;44928;53.074;6.646;2023-06-22T11:14:15;9.45;;;4.15;;
59145;SDS011;44928;53.074;6.646;2023-06-22T11:16:41;8.48;;;3.67;;
59145;SDS011;44928;53.074;6.646;2023-06-22T11:19:07;9.30;;;4.07;;
59145;SDS011;44928;53.074;6.646;2023-06-22T11:21:32;8.65;;;3.72;;
59145;SDS011;44928;53.074;6.646;2023-06-22T11:23:58;8.00;;;3.92;;
59145;SDS011;44928;53.074;6.646;2023-06-22T11:26:25;7.22;;;3.60;;
59145;SDS011;44928;53.074;6.646;2023-06-22T11:28:54;8.80;;;4.07;;
59145;SDS011;44928;53.074;6.646;2023-06-22T11:31:20;8.02;;;3.80;;
59145;SDS011;44928;53.074;6.646;2023-06-22T11:33:46;8.93;;;4.30;;
59145;SDS011;44928;53.074;6.646;2023-06-22T11:36:13;8.90;;;3.83;;
59145;SDS011;44928;53.074;6.646;2023-06-22T11:38:39;9.80;;;3.67;;
59145;SDS011;44928;53.074;6.646;2023-06-22T11:41:08;10.73;;;4.32;;
59145;SDS011;44928;53.074;6.646;2023-06-22T11:43:35;9.35;;;3.20;;
59145;SDS011;44928;53.074;6.646;2023-06-22T11:46:02;12.40;;;3.90;;
59145;SDS011;44928;53.074;6.646;2023-06-22T11:48:28;8.68;;;3.60;;
59145;SDS011;44928;53.074;6.646;2023-06-22T11:50:55;9.35;;;3.63;;
59145;SDS011;44928;53.074;6.646;2023-06-22T11:53:21;8.52;;;3.65;;
59145;SDS011;44928;53.074;6.646;2023-06-22T11:55:49;8.45;;;3.97;;
59145;SDS011;44928;53.074;6.646;2023-06-22T11:58:15;8.98;;;4.07;;
59145;SDS011;44928;53.074;6.646;2023-06-22T12:00:41;8.30;;;3.45;;
59145;SDS011;44928;53.074;6.646;2023-06-22T12:03:07;11.23;;;3.78;;
59145;SDS011;44928;53.074;6.646;2023-06-22T12:05:33;7.85;;;3.70;;
59145;SDS011;44928;53.074;6.646;2023-06-22T12:07:58;8.40;;;4.28;;
59145;SDS011;44928;53.074;6.646;2023-06-22T12:10:27;10.07;;;4.35;;
59145;SDS011;44928;53.074;6.646;2023-06-22T12:12:56;7.88;;;3.47;;
59145;SDS011;44928;53.074;6.646;2023-06-22T12:15:25;9.02;;;3.75;;
59145;SDS011;44928;53.074;6.646;2023-06-22T12:17:51;8.07;;;3.60;;
59145;SDS011;44928;53.074;6.646;2023-06-22T12:20:17;7.47;;;3.63;;
59145;SDS011;44928;53.074;6.646;2023-06-22T12:22:43;12.00;;;3.70;;
59145;SDS011;44928;53.074;6.646;2023-06-22T12:25:10;8.10;;;3.70;;
59145;SDS011;44928;53.074;6.646;2023-06-22T12:27:35;8.95;;;3.38;;
59145;SDS011;44928;53.074;6.646;2023-06-22T12:30:02;8.65;;;3.85;;
59145;SDS011;44928;53.074;6.646;2023-06-22T12:32:29;9.52;;;4.03;;
59145;SDS011;44928;53.074;6.646;2023-06-22T12:34:55;8.32;;;3.50;;
59145;SDS011;44928;53.074;6.646;2023-06-22T12:37:22;8.98;;;3.22;;
59145;SDS011;44928;53.074;6.646;2023-06-22T12:39:48;24.52;;;5.32;;
59145;SDS011;44928;53.074;6.646;2023-06-22T12:42:14;9.02;;;3.60;;
59145;SDS011;44928;53.074;6.646;2023-06-22T12:44:41;9.13;;;3.67;;
59145;SDS011;44928;53.074;6.646;2023-06-22T12:47:07;10.13;;;3.55;;
59145;SDS011;44928;53.074;6.646;2023-06-22T12:49:36;21.92;;;4.50;;
59145;SDS011;44928;53.074;6.646;2023-06-22T12:52:02;8.07;;;3.40;;
59145;SDS011;44928;53.074;6.646;2023-06-22T12:54:28;10.57;;;3.92;;
59145;SDS011;44928;53.074;6.646;2023-06-22T12:56:54;7.43;;;3.70;;
59145;SDS011;44928;53.074;6.646;2023-06-22T12:59:21;9.10;;;4.35;;
59145;SDS011;44928;53.074;6.646;2023-06-22T13:01:46;9.32;;;4.47;;
59145;SDS011;44928;53.074;6.646;2023-06-22T13:04:12;9.52;;;4.85;;
59145;SDS011;44928;53.074;6.646;2023-06-22T13:06:40;8.88;;;4.63;;
59145;SDS011;44928;53.074;6.646;2023-06-22T13:09:06;8.38;;;4.15;;
59145;SDS011;44928;53.074;6.646;2023-06-22T13:11:35;11.20;;;4.47;;
59145;SDS011;44928;53.074;6.646;2023-06-22T13:14:00;8.68;;;4.22;;
59145;SDS011;44928;53.074;6.646;2023-06-22T13:16:26;11.50;;;5.55;;
59145;SDS011;44928;53.074;6.646;2023-06-22T13:18:52;11.43;;;4.80;;
59145;SDS011;44928;53.074;6.646;2023-06-22T13:21:18;9.57;;;5.60;;
59145;SDS011;44928;53.074;6.646;2023-06-22T13:23:44;10.75;;;5.53;;
59145;SDS011;44928;53.074;6.646;2023-06-22T13:26:09;9.57;;;5.03;;
59145;SDS011;44928;53.074;6.646;2023-06-22T13:28:35;10.13;;;5.38;;
59145;SDS011;44928;53.074;6.646;2023-06-22T13:31:01;8.45;;;4.28;;
59145;SDS011;44928;53.074;6.646;2023-06-22T13:33:27;26.45;;;6.07;;
59145;SDS011;44928;53.074;6.646;2023-06-22T13:35:53;9.68;;;4.55;;
59145;SDS011;44928;53.074;6.646;2023-06-22T13:38:19;18.38;;;5.18;;
59145;SDS011;44928;53.074;6.646;2023-06-22T13:40:44;15.18;;;4.72;;
59145;SDS011;44928;53.074;6.646;2023-06-22T13:43:10;8.85;;;4.45;;
59145;SDS011;44928;53.074;6.646;2023-06-22T13:45:36;9.80;;;4.60;;
59145;SDS011;44928;53.074;6.646;2023-06-22T13:48:02;10.95;;;5.25;;
59145;SDS011;44928;53.074;6.646;2023-06-22T13:50:28;14.23;;;5.28;;
59145;SDS011;44928;53.074;6.646;2023-06-22T13:52:55;15.27;;;6.18;;
59145;SDS011;44928;53.074;6.646;2023-06-22T13:55:21;9.43;;;5.20;;
59145;SDS011;44928;53.074;6.646;2023-06-22T13:57:48;11.23;;;4.70;;
59145;SDS011;44928;53.074;6.646;2023-06-22T14:00:14;10.50;;;4.30;;
59145;SDS011;44928;53.074;6.646;2023-06-22T14:02:40;9.88;;;4.85;;
59145;SDS011;44928;53.074;6.646;2023-06-22T14:05:06;8.68;;;4.85;;
59145;SDS011;44928;53.074;6.646;2023-06-22T14:07:33;9.85;;;5.18;;
59145;SDS011;44928;53.074;6.646;2023-06-22T14:09:59;9.23;;;4.88;;
59145;SDS011;44928;53.074;6.646;2023-06-22T14:12:26;14.45;;;4.82;;
59145;SDS011;44928;53.074;6.646;2023-06-22T14:14:52;18.23;;;5.90;;
59145;SDS011;44928;53.074;6.646;2023-06-22T14:17:17;14.27;;;4.28;;
59145;SDS011;44928;53.074;6.646;2023-06-22T14:19:49;11.55;;;4.22;;
59145;SDS011;44928;53.074;6.646;2023-06-22T14:22:17;9.55;;;4.35;;
59145;SDS011;44928;53.074;6.646;2023-06-22T14:24:43;9.80;;;4.25;;
59145;SDS011;44928;53.074;6.646;2023-06-22T14:27:09;11.05;;;4.45;;
59145;SDS011;44928;53.074;6.646;2023-06-22T14:29:35;8.40;;;3.97;;
59145;SDS011;44928;53.074;6.646;2023-06-22T14:32:01;9.98;;;3.40;;
59145;SDS011;44928;53.074;6.646;2023-06-22T14:34:26;16.20;;;4.65;;
59145;SDS011;44928;53.074;6.646;2023-06-22T14:36:52;20.48;;;3.90;;
59145;SDS011;44928;53.074;6.646;2023-06-22T14:39:18;14.25;;;4.03;;